EGPE/INV METAR and TAF weather

Enter ICAO airport designator
Station Type Date Time Source
EGPE METAR 2020/09/27 02:20 UTC NOAA

EGPE 270220Z AUTO 20003KT 9999 BKN032/// 04/03 Q1021


Station Type Date Time Source
EGPE Decoded METAR 2020/09/27 02:20 UTC NOAA

Inverness / Dalcross, United Kingdom (EGPE) 57-32N 004-03W 0M
Sep 26, 2020 - 10:20 PM EDT / 2020.09.27 0220 UTC
Wind: from the SSW (200 degrees) at 3 MPH (3 KT):0
Visibility: greater than 7 mile(s):0
Sky conditions: mostly cloudy
Temperature: 39 F (4 C)
Dew Point: 37 F (3 C)
Relative Humidity: 93%
Pressure (altimeter): 30.15 in. Hg (1021 hPa)
ob: EGPE 270220Z AUTO 20003KT 9999 BKN032/// 04/03 Q1021
cycle: 2

Station Type Date Time Source
EGPE TAF UTC NOAA

Error!

Example: see airport list